createdAt,value
2022-11-07T00:00:28.303Z,102.80
2022-11-07T00:03:31.618Z,109.60
2022-11-07T00:06:37.448Z,102.32
2022-11-07T00:09:42.205Z,97.75
2022-11-07T00:12:45.427Z,100.97
2022-11-07T00:15:48.750Z,97.18
2022-11-07T00:18:52.334Z,112.53
2022-11-07T00:21:58.243Z,96.30
2022-11-07T00:25:03.008Z,96.45
2022-11-07T00:28:06.806Z,95.20
2022-11-07T00:31:11.761Z,99.50
2022-11-07T00:34:15.498Z,93.75
2022-11-07T00:37:18.632Z,98.45
2022-11-07T00:40:24.218Z,98.97
2022-11-07T00:43:28.213Z,99.53
2022-11-07T00:46:31.456Z,94.57
2022-11-07T00:49:34.763Z,90.38
2022-11-07T00:52:38.234Z,93.45
2022-11-07T00:55:43.054Z,90.72
2022-11-07T00:58:46.351Z,87.82
2022-11-07T01:01:49.882Z,85.78
2022-11-07T01:05:10.529Z,82.38
2022-11-07T01:08:13.730Z,80.60
2022-11-07T01:11:18.709Z,76.70
2022-11-07T01:14:23.755Z,81.85
2022-11-07T01:17:27.118Z,75.32
2022-11-07T01:20:30.296Z,78.00
2022-11-07T01:23:33.980Z,74.13
2022-11-07T01:26:41.047Z,71.20
2022-11-07T01:29:44.207Z,62.80
2022-11-07T01:32:47.438Z,67.13
2022-11-07T01:35:50.890Z,67.32
2022-11-07T01:38:54.167Z,69.82
2022-11-07T01:41:58.858Z,69.68
2022-11-07T01:45:02.143Z,74.63
2022-11-07T01:48:06.025Z,73.22
2022-11-07T01:51:10.165Z,72.28
2022-11-07T01:54:14.888Z,72.40
2022-11-07T01:57:23.667Z,73.72
2022-11-07T02:04:06.834Z,75.75
2022-11-07T02:07:14.728Z,75.93
2022-11-07T02:10:19.415Z,73.15
2022-11-07T02:13:28.099Z,76.10
2022-11-07T02:16:33.076Z,76.10
2022-11-07T02:19:40.676Z,77.03
2022-11-07T02:22:50.375Z,72.38
2022-11-07T02:25:55.406Z,76.82
2022-11-07T02:28:59.487Z,78.97
2022-11-07T02:32:04.230Z,79.07
2022-11-07T02:35:28.691Z,79.95
2022-11-07T02:38:35.862Z,79.32
2022-11-07T02:41:40.457Z,79.53
2022-11-07T02:44:43.670Z,79.53
2022-11-07T02:47:47.128Z,78.10
2022-11-07T02:50:50.774Z,83.22
2022-11-07T02:53:54.640Z,84.50
2022-11-07T02:56:59.347Z,81.00
2022-11-07T03:00:02.741Z,76.93
2022-11-07T03:03:06.149Z,82.85
2022-11-07T03:06:11.132Z,76.57
2022-11-07T03:09:14.423Z,79.47
2022-11-07T03:12:19.912Z,80.90
2022-11-07T03:15:23.494Z,88.18
2022-11-07T03:18:28.004Z,88.38
2022-11-07T03:21:31.216Z,82.90
2022-11-07T03:24:34.683Z,76.20
2022-11-07T03:27:47.362Z,81.43
2022-11-07T03:30:50.532Z,88.07
2022-11-07T03:33:53.918Z,88.07
2022-11-07T03:36:57.116Z,84.32
2022-11-07T03:40:00.374Z,89.65
2022-11-07T03:43:05.092Z,82.30
2022-11-07T03:46:08.313Z,85.45
2022-11-07T03:49:11.523Z,86.50
2022-11-07T03:52:14.738Z,86.63
2022-11-07T03:55:19.157Z,85.10
2022-11-07T03:58:24.824Z,88.65
2022-11-07T04:01:28.254Z,86.78
2022-11-07T04:04:31.573Z,80.68
2022-11-07T04:07:34.851Z,90.55
2022-11-07T04:10:38.198Z,84.43
2022-11-07T04:13:59.876Z,86.18
2022-11-07T04:17:19.563Z,82.18
2022-11-07T04:20:22.925Z,66.13
2022-11-07T04:23:26.117Z,87.95
2022-11-07T04:26:46.503Z,87.88
2022-11-07T04:32:55.750Z,83.57
2022-11-07T04:35:59.317Z,87.68
2022-11-07T04:39:02.762Z,87.65
2022-11-07T04:42:06.158Z,87.05
2022-11-07T04:45:11.816Z,88.00
2022-11-07T04:48:15.298Z,84.22
2022-11-07T04:51:24.491Z,86.93
2022-11-07T04:54:27.740Z,91.57
2022-11-07T04:57:31.024Z,90.75
2022-11-07T05:00:35.848Z,90.75
2022-11-07T05:03:42.123Z,92.57
2022-11-07T05:06:45.638Z,92.35
2022-11-07T05:09:49.309Z,89.90
2022-11-07T05:12:53.252Z,94.95
2022-11-07T05:15:58.822Z,94.68
2022-11-07T05:19:03.359Z,94.70
2022-11-07T05:22:23.797Z,100.28
2022-11-07T05:25:27.083Z,92.78
2022-11-07T05:28:39.131Z,90.03
2022-11-07T05:31:44.204Z,85.75
2022-11-07T05:34:47.708Z,94.35
2022-11-07T05:37:52.319Z,88.70
2022-11-07T05:40:55.655Z,95.85
2022-11-07T05:43:58.918Z,102.43
2022-11-07T05:47:03.548Z,91.50
2022-11-07T05:50:07.650Z,99.10
2022-11-07T05:53:10.971Z,96.65
2022-11-07T05:56:14.215Z,95.78
2022-11-07T05:59:17.430Z,93.47
2022-11-07T06:02:24.057Z,89.00
2022-11-07T06:05:27.962Z,97.30
2022-11-07T06:08:31.297Z,100.55
2022-11-07T06:11:34.549Z,99.45
2022-11-07T06:14:37.851Z,93.63
2022-11-07T06:17:42.465Z,94.35
2022-11-07T06:20:46.286Z,90.32
2022-11-07T06:23:49.574Z,89.47
2022-11-07T06:26:53.557Z,88.63
2022-11-07T06:29:56.911Z,91.25
2022-11-07T06:33:04.012Z,82.50
2022-11-07T06:36:09.358Z,86.00
2022-11-07T06:39:15.836Z,87.22
2022-11-07T06:42:19.648Z,91.55
2022-11-07T06:45:23.327Z,83.00
2022-11-07T06:48:28.011Z,77.30
2022-11-07T06:51:31.390Z,77.30
2022-11-07T06:54:34.627Z,67.53
2022-11-07T06:57:37.920Z,82.28
2022-11-07T07:00:41.242Z,71.28
2022-11-07T07:03:46.020Z,71.38
2022-11-07T07:06:49.357Z,68.53
2022-11-07T07:09:52.661Z,65.20
2022-11-07T07:12:56.894Z,67.35
2022-11-07T07:16:00.862Z,69.68
2022-11-07T07:19:05.802Z,69.07
2022-11-07T07:22:13.219Z,62.67
2022-11-07T07:25:16.837Z,65.32
2022-11-07T07:28:20.085Z,69.18
2022-11-07T07:31:26.603Z,69.78
2022-11-07T07:34:31.386Z,70.47
2022-11-07T07:37:34.787Z,66.35
2022-11-07T07:40:38.051Z,62.88
2022-11-07T07:43:41.269Z,64.35
2022-11-07T07:46:45.338Z,67.78
2022-11-07T07:49:49.965Z,67.85
2022-11-07T07:52:57.248Z,59.67
2022-11-07T07:56:02.834Z,58.50
2022-11-07T07:59:06.547Z,70.78
2022-11-07T08:02:12.170Z,68.65
2022-11-07T08:05:17.286Z,65.65
2022-11-07T08:08:20.716Z,69.20
2022-11-07T08:11:24.032Z,65.50
2022-11-07T08:14:27.799Z,69.38
2022-11-07T08:17:31.298Z,65.63
2022-11-07T08:20:35.959Z,64.72
2022-11-07T08:23:40.174Z,62.92
2022-11-07T08:26:43.474Z,63.15
2022-11-07T08:29:46.774Z,65.22
2022-11-07T08:32:50.179Z,58.15
2022-11-07T08:35:55.685Z,62.00
2022-11-07T08:38:59.092Z,57.40
2022-11-07T08:42:02.457Z,58.33
2022-11-07T08:45:06.863Z,62.40
2022-11-07T08:48:10.872Z,59.03
2022-11-07T08:51:15.566Z,65.45
2022-11-07T08:54:18.920Z,59.33
2022-11-07T08:57:22.197Z,60.25
2022-11-07T09:00:25.920Z,54.85
2022-11-07T09:03:48.655Z,56.80
2022-11-07T09:06:53.866Z,62.17
2022-11-07T09:09:57.107Z,54.25
2022-11-07T09:13:01.656Z,55.40
2022-11-07T09:16:06.705Z,51.47
2022-11-07T09:19:10.010Z,53.33
2022-11-07T09:22:15.021Z,46.35
2022-11-07T09:25:18.463Z,51.38
2022-11-07T09:28:22.361Z,51.10
2022-11-07T09:31:25.936Z,50.95
2022-11-07T09:34:29.267Z,50.90
2022-11-07T09:37:33.875Z,48.25
2022-11-07T09:40:45.757Z,49.30
2022-11-07T09:44:30.910Z,44.10
2022-11-07T09:47:38.718Z,50.10
2022-11-07T09:50:49.929Z,46.80
2022-11-07T09:53:58.923Z,45.80
2022-11-07T09:57:03.456Z,50.00
2022-11-07T10:00:11.371Z,48.08
2022-11-07T10:03:15.177Z,51.33
2022-11-07T10:06:25.759Z,49.58
2022-11-07T10:09:38.557Z,48.53
2022-11-07T10:12:57.156Z,43.72
2022-11-07T10:16:08.736Z,45.47
2022-11-07T10:19:24.054Z,44.38
2022-11-07T10:22:37.802Z,44.67
2022-11-07T10:25:49.603Z,46.35
2022-11-07T10:29:00.108Z,45.97
2022-11-07T10:32:15.554Z,50.17
2022-11-07T10:35:26.295Z,49.72
2022-11-07T10:38:31.441Z,46.72
2022-11-07T10:41:37.846Z,47.30
2022-11-07T10:44:43.466Z,49.05
2022-11-07T10:47:58.155Z,47.00
2022-11-07T10:51:01.379Z,46.78
2022-11-07T10:54:05.759Z,45.15
2022-11-07T10:57:14.621Z,44.78
2022-11-07T11:00:29.425Z,43.83
2022-11-07T11:03:44.318Z,45.22
2022-11-07T11:06:58.137Z,43.22
2022-11-07T11:10:01.450Z,43.50
2022-11-07T11:13:08.144Z,45.33
2022-11-07T11:16:27.927Z,41.55
2022-11-07T11:19:40.688Z,44.83
2022-11-07T11:22:44.381Z,45.33
2022-11-07T11:25:50.021Z,41.63
2022-11-07T11:29:00.710Z,44.72
2022-11-07T11:32:05.093Z,44.28
2022-11-07T11:35:19.279Z,36.08
2022-11-07T11:38:25.709Z,39.67
2022-11-07T11:41:36.659Z,41.03
2022-11-07T11:44:44.323Z,39.00
2022-11-07T11:47:57.168Z,40.58
2022-11-07T11:51:05.401Z,44.20
2022-11-07T11:54:10.959Z,36.78
2022-11-07T11:57:18.955Z,38.72
2022-11-07T12:00:25.282Z,37.53
2022-11-07T12:03:57.008Z,37.30
2022-11-07T12:07:05.379Z,36.00
2022-11-07T12:10:15.265Z,45.13
2022-11-07T12:13:28.440Z,37.72
2022-11-07T12:16:41.220Z,43.20
2022-11-07T12:19:52.011Z,42.15
2022-11-07T12:23:15.675Z,39.65
2022-11-07T12:26:25.998Z,37.30
2022-11-07T12:29:41.083Z,38.10
2022-11-07T12:32:58.968Z,32.50
2022-11-07T12:36:06.654Z,30.55
2022-11-07T12:39:24.453Z,37.75
2022-11-07T12:42:38.184Z,36.47
2022-11-07T12:45:50.100Z,34.25
2022-11-07T12:49:15.564Z,33.45
2022-11-07T12:52:36.354Z,34.45
2022-11-07T12:55:44.263Z,32.13
2022-11-07T12:58:48.670Z,37.90
2022-11-07T13:02:01.659Z,38.08
2022-11-07T13:05:19.491Z,35.10
2022-11-07T13:08:34.889Z,34.78
2022-11-07T13:11:45.667Z,39.22
2022-11-07T13:14:50.158Z,38.60
2022-11-07T13:17:54.172Z,40.40
2022-11-07T13:21:03.997Z,37.83
2022-11-07T13:24:07.520Z,38.78
2022-11-07T13:27:21.737Z,43.05
2022-11-07T13:30:35.310Z,39.25
2022-11-07T13:33:41.171Z,40.47
2022-11-07T13:36:46.743Z,41.70
2022-11-07T13:39:54.494Z,39.67
2022-11-07T13:43:00.646Z,39.75
2022-11-07T13:46:06.315Z,44.75
2022-11-07T13:49:17.551Z,37.10
2022-11-07T13:52:30.853Z,40.03
2022-11-07T13:55:45.265Z,38.95
2022-11-07T13:58:52.421Z,37.53
2022-11-07T14:01:58.362Z,41.42
2022-11-07T14:05:20.780Z,44.03
2022-11-07T14:08:29.767Z,36.60
2022-11-07T14:11:38.024Z,40.33
2022-11-07T14:14:41.658Z,44.05
2022-11-07T14:17:46.596Z,42.00
2022-11-07T14:20:54.200Z,42.88
2022-11-07T14:23:59.218Z,41.05
2022-11-07T14:27:06.247Z,46.22
2022-11-07T14:30:17.429Z,48.28
2022-11-07T14:33:23.078Z,44.83
2022-11-07T14:36:26.872Z,43.72
2022-11-07T14:39:33.798Z,50.08
2022-11-07T14:42:38.043Z,41.70
2022-11-07T14:49:07.725Z,43.75
2022-11-07T14:52:18.713Z,44.85
2022-11-07T14:55:31.830Z,40.17
2022-11-07T14:58:36.315Z,44.08
2022-11-07T15:01:40.213Z,46.60
2022-11-07T15:04:45.331Z,46.38
2022-11-07T15:07:50.690Z,43.15
2022-11-07T15:11:05.006Z,44.97
2022-11-07T15:14:23.332Z,44.08
2022-11-07T15:17:28.170Z,94.20
2022-11-07T15:20:37.443Z,52.13
2022-11-07T15:23:40.885Z,62.47
2022-11-07T15:26:45.931Z,119.25
2022-11-07T15:29:54.240Z,81.93
2022-11-07T15:32:58.020Z,110.88
2022-11-07T15:36:03.269Z,124.07
2022-11-07T15:39:06.625Z,85.10
2022-11-07T15:42:11.391Z,148.48
2022-11-07T15:45:14.880Z,173.70
2022-11-07T15:48:22.013Z,104.80
2022-11-07T15:51:25.360Z,104.65
2022-11-07T15:54:33.061Z,116.30
2022-11-07T15:57:37.897Z,124.50
2022-11-07T16:00:41.318Z,360.58
2022-11-07T16:03:44.783Z,129.45
2022-11-07T16:06:48.286Z,144.50
2022-11-07T16:09:51.819Z,228.18
2022-11-07T16:13:00.895Z,167.27
2022-11-07T16:16:10.963Z,146.35
2022-11-07T16:19:16.952Z,159.77
2022-11-07T16:22:21.618Z,145.48
2022-11-07T16:25:25.954Z,106.65
2022-11-07T16:28:33.249Z,89.45
2022-11-07T16:31:36.489Z,83.85
2022-11-07T16:34:39.772Z,89.72
2022-11-07T16:37:43.139Z,91.90
2022-11-07T16:40:46.632Z,93.72
2022-11-07T16:43:51.901Z,74.03
2022-11-07T16:46:56.688Z,75.25
2022-11-07T16:50:00.053Z,62.28
2022-11-07T16:53:03.354Z,68.00
2022-11-07T16:56:07.255Z,57.35
2022-11-07T16:59:19.367Z,60.72
2022-11-07T17:02:24.830Z,56.28
2022-11-07T17:05:28.175Z,49.80
2022-11-07T17:08:37.255Z,57.47
2022-11-07T17:11:40.606Z,56.42
2022-11-07T17:14:45.434Z,54.25
2022-11-07T17:17:48.828Z,62.60
2022-11-07T17:20:53.376Z,57.70
2022-11-07T17:23:58.837Z,64.60
2022-11-07T17:27:02.812Z,48.75
2022-11-07T17:30:13.039Z,68.97
2022-11-07T17:33:16.387Z,74.75
2022-11-07T17:36:36.687Z,61.08
2022-11-07T17:39:40.998Z,52.83
2022-11-07T17:42:44.585Z,41.80
2022-11-07T17:45:49.520Z,40.47
2022-11-07T17:48:54.167Z,35.38
2022-11-07T17:51:57.883Z,36.03
2022-11-07T17:55:01.121Z,30.88
2022-11-07T17:58:04.471Z,32.90
2022-11-07T18:01:14.784Z,37.85
2022-11-07T18:07:21.239Z,34.53
2022-11-07T18:10:24.621Z,38.33
2022-11-07T18:13:27.959Z,43.63
2022-11-07T18:16:34.598Z,41.90
2022-11-07T18:19:38.077Z,38.78
2022-11-07T18:22:41.625Z,37.85
2022-11-07T18:25:45.112Z,37.75
2022-11-07T18:28:51.068Z,36.53
2022-11-07T18:31:55.922Z,74.93
2022-11-07T18:34:59.226Z,69.75
2022-11-07T18:38:02.610Z,44.10
2022-11-07T18:41:08.374Z,42.25
2022-11-07T18:44:12.109Z,33.67
2022-11-07T18:47:16.874Z,33.40
2022-11-07T18:50:20.322Z,31.58
2022-11-07T18:53:23.723Z,39.20
2022-11-07T18:56:27.385Z,34.17
2022-11-07T18:59:30.818Z,32.63
2022-11-07T19:02:35.576Z,29.17
2022-11-07T19:05:41.263Z,27.60
2022-11-07T19:08:47.272Z,30.77
2022-11-07T19:11:50.568Z,40.78
2022-11-07T19:14:54.021Z,36.42
2022-11-07T19:17:58.834Z,30.52
2022-11-07T19:21:03.841Z,34.22
2022-11-07T19:24:08.262Z,35.70
2022-11-07T19:27:11.659Z,38.95
2022-11-07T19:30:16.758Z,43.38
2022-11-07T19:33:21.555Z,37.10
2022-11-07T19:36:25.111Z,35.25
2022-11-07T19:39:28.797Z,43.58
2022-11-07T19:42:32.483Z,38.80
2022-11-07T19:45:35.760Z,34.83
2022-11-07T19:48:40.961Z,36.10
2022-11-07T19:51:44.353Z,49.38
2022-11-07T19:54:50.658Z,43.22
2022-11-07T19:57:54.156Z,33.92
2022-11-07T20:00:57.551Z,42.78
2022-11-07T20:04:05.732Z,38.90
2022-11-07T20:07:09.965Z,33.95
2022-11-07T20:10:13.409Z,33.63
2022-11-07T20:13:16.870Z,38.00
2022-11-07T20:16:20.390Z,33.10
2022-11-07T20:19:25.240Z,33.95
2022-11-07T20:22:28.540Z,32.75
2022-11-07T20:25:32.772Z,30.92
2022-11-07T20:28:36.310Z,34.80
2022-11-07T20:31:41.892Z,34.00
2022-11-07T20:34:51.308Z,31.35
2022-11-07T20:37:57.069Z,32.60
2022-11-07T20:41:00.803Z,39.70
2022-11-07T20:44:06.317Z,46.92
2022-11-07T20:47:11.851Z,54.47
2022-11-07T20:50:17.604Z,50.13
2022-11-07T20:53:22.183Z,39.33
2022-11-07T20:56:27.213Z,39.67
2022-11-07T20:59:31.479Z,42.33
2022-11-07T21:02:34.811Z,47.90
2022-11-07T21:05:39.771Z,48.42
2022-11-07T21:08:46.039Z,42.22
2022-11-07T21:11:49.932Z,43.83
2022-11-07T21:14:54.724Z,50.15
2022-11-07T21:17:58.051Z,47.85
2022-11-07T21:21:09.114Z,48.70
2022-11-07T21:24:12.595Z,43.75
2022-11-07T21:27:15.881Z,47.95
2022-11-07T21:30:19.363Z,45.20
2022-11-07T21:33:23.639Z,48.75
2022-11-07T21:36:29.798Z,42.60
2022-11-07T21:39:33.165Z,47.53
2022-11-07T21:42:37.268Z,45.83
2022-11-07T21:45:40.833Z,43.08
2022-11-07T21:48:45.740Z,46.70
2022-11-07T21:51:53.991Z,42.38
2022-11-07T21:54:57.497Z,42.08
2022-11-07T21:58:00.759Z,44.10
2022-11-07T22:01:05.172Z,41.67
2022-11-07T22:04:12.084Z,43.17
2022-11-07T22:07:17.456Z,43.75
2022-11-07T22:10:20.891Z,44.42
2022-11-07T22:13:24.130Z,43.92
2022-11-07T22:16:27.813Z,48.80
2022-11-07T22:19:31.271Z,45.85
2022-11-07T22:22:36.251Z,53.63
2022-11-07T22:25:39.742Z,47.10
2022-11-07T22:28:46.093Z,48.33
2022-11-07T22:31:49.944Z,50.95
2022-11-07T22:34:53.323Z,44.92
2022-11-07T22:37:58.271Z,46.08
2022-11-07T22:41:02.495Z,48.97
2022-11-07T22:44:06.207Z,46.30
2022-11-07T22:47:09.527Z,45.17
2022-11-07T22:50:12.811Z,42.63
2022-11-07T22:53:17.812Z,41.42
2022-11-07T22:56:21.358Z,41.53
2022-11-07T22:59:24.595Z,45.42
2022-11-07T23:02:27.999Z,44.63
2022-11-07T23:05:31.364Z,47.70
2022-11-07T23:08:36.599Z,44.10
2022-11-07T23:11:48.291Z,40.50
2022-11-07T23:14:52.205Z,41.50
2022-11-07T23:17:55.454Z,42.22
2022-11-07T23:21:11.338Z,41.17
2022-11-07T23:24:16.102Z,46.70
2022-11-07T23:27:19.919Z,48.65
2022-11-07T23:30:23.156Z,45.70
2022-11-07T23:33:26.593Z,48.05
2022-11-07T23:36:29.792Z,45.17
2022-11-07T23:39:34.557Z,50.35
2022-11-07T23:42:37.853Z,50.53
2022-11-07T23:45:58.354Z,52.88
2022-11-07T23:49:18.864Z,51.17
2022-11-07T23:52:22.044Z,54.70
2022-11-07T23:55:40.792Z,49.08
2022-11-07T23:59:01.272Z,50.90
